createdAt,value
2022-08-10T00:01:52.273Z,17.70
2022-08-10T00:04:23.367Z,17.60
2022-08-10T00:06:54.076Z,17.60
2022-08-10T00:09:21.040Z,17.50
2022-08-10T00:11:47.671Z,17.50
2022-08-10T00:14:14.515Z,17.50
2022-08-10T00:16:41.186Z,17.40
2022-08-10T00:19:07.819Z,17.40
2022-08-10T00:21:36.556Z,17.40
2022-08-10T00:24:03.456Z,17.40
2022-08-10T00:27:52.935Z,17.30
2022-08-10T00:29:16.749Z,17.40
2022-08-10T00:31:58.355Z,17.40
2022-08-10T00:34:26.820Z,17.40
2022-08-10T00:36:53.463Z,17.40
2022-08-10T00:39:20.178Z,17.50
2022-08-10T00:41:47.372Z,17.40
2022-08-10T00:44:32.996Z,17.50
2022-08-10T00:47:00.868Z,17.50
2022-08-10T00:49:27.968Z,17.40
2022-08-10T00:51:54.740Z,17.40
2022-08-10T00:54:24.496Z,17.30
2022-08-10T00:57:15.823Z,17.30
2022-08-10T00:59:38.528Z,17.30
2022-08-10T01:02:25.217Z,17.30
2022-08-10T01:05:01.001Z,17.30
2022-08-10T01:07:37.712Z,17.20
2022-08-10T01:10:04.399Z,17.20
2022-08-10T01:12:40.868Z,17.20
2022-08-10T01:15:11.236Z,17.10
2022-08-10T01:17:50.403Z,17.10
2022-08-10T01:20:30.317Z,17.10
2022-08-10T01:23:08.503Z,17.10
2022-08-10T01:26:12.445Z,17.10
2022-08-10T01:29:00.819Z,17.10
2022-08-10T01:31:30.377Z,17.00
2022-08-10T01:34:02.276Z,17.00
2022-08-10T01:36:34.730Z,17.00
2022-08-10T01:39:03.471Z,17.00
2022-08-10T01:41:45.952Z,17.00
2022-08-10T01:44:15.717Z,17.00
2022-08-10T01:46:45.092Z,17.00
2022-08-10T01:49:12.256Z,17.00
2022-08-10T01:51:40.773Z,17.00
2022-08-10T01:54:12.971Z,17.00
2022-08-10T01:56:42.183Z,16.90
2022-08-10T01:59:15.009Z,16.80
2022-08-10T02:01:43.552Z,16.80
2022-08-10T02:04:11.869Z,16.80
2022-08-10T02:06:41.837Z,16.80
2022-08-10T02:09:10.820Z,16.70
2022-08-10T02:12:06.515Z,16.80
2022-08-10T02:14:33.535Z,16.70
2022-08-10T02:17:06.241Z,16.70
2022-08-10T02:19:34.079Z,16.80
2022-08-10T02:22:35.016Z,16.80
2022-08-10T02:24:48.390Z,16.70
2022-08-10T02:27:15.496Z,16.70
2022-08-10T02:29:42.932Z,16.60
2022-08-10T02:32:23.762Z,16.60
2022-08-10T02:35:04.559Z,16.60
2022-08-10T02:37:32.057Z,16.60
2022-08-10T02:39:58.799Z,16.50
2022-08-10T02:45:19.339Z,16.50
2022-08-10T02:45:30.811Z,16.50
2022-08-10T02:48:27.863Z,16.50
2022-08-10T02:50:58.777Z,16.40
2022-08-10T02:53:54.654Z,16.40
2022-08-10T02:56:23.223Z,16.40
2022-08-10T02:58:52.824Z,16.40
2022-08-10T03:01:21.931Z,16.40
2022-08-10T03:03:51.951Z,16.30
2022-08-10T03:06:20.676Z,16.40
2022-08-10T03:08:49.007Z,16.40
2022-08-10T03:12:35.032Z,16.20
2022-08-10T03:14:09.701Z,15.80
2022-08-10T03:16:37.204Z,15.50
2022-08-10T03:19:04.890Z,15.30
2022-08-10T03:21:32.299Z,15.10
2022-08-10T03:24:01.487Z,14.90
2022-08-10T03:26:31.981Z,14.90
2022-08-10T03:28:59.529Z,14.90
2022-08-10T03:31:29.351Z,15.00
2022-08-10T03:33:56.793Z,15.00
2022-08-10T03:36:41.641Z,15.00
2022-08-10T03:39:10.396Z,15.00
2022-08-10T03:41:41.352Z,15.10
2022-08-10T03:44:18.382Z,15.20
2022-08-10T03:46:45.827Z,15.10
2022-08-10T03:49:13.425Z,15.10
2022-08-10T03:51:40.637Z,15.10
2022-08-10T03:54:07.749Z,15.00
2022-08-10T03:56:36.074Z,15.00
2022-08-10T03:59:03.543Z,15.00
2022-08-10T04:02:43.940Z,14.90
2022-08-10T04:04:22.788Z,14.70
2022-08-10T04:06:54.477Z,14.70
2022-08-10T04:09:22.279Z,14.60
2022-08-10T04:11:49.016Z,14.50
2022-08-10T04:14:38.676Z,14.40
2022-08-10T04:17:02.341Z,14.40
2022-08-10T04:19:29.753Z,14.40
2022-08-10T04:22:13.940Z,14.40
2022-08-10T04:24:41.809Z,14.40
2022-08-10T04:27:08.715Z,14.40
2022-08-10T04:29:35.441Z,14.30
2022-08-10T04:32:03.214Z,14.30
2022-08-10T04:34:31.852Z,14.20
2022-08-10T04:37:04.354Z,14.20
2022-08-10T04:39:33.794Z,14.20
2022-08-10T04:42:00.649Z,14.20
2022-08-10T04:44:27.297Z,14.00
2022-08-10T04:46:58.183Z,13.90
2022-08-10T04:49:54.881Z,13.70
2022-08-10T04:52:12.836Z,13.70
2022-08-10T04:54:39.500Z,13.70
2022-08-10T04:57:06.182Z,13.80
2022-08-10T04:59:32.851Z,13.70
2022-08-10T05:02:28.356Z,13.70
2022-08-10T05:04:46.136Z,13.80
2022-08-10T05:07:17.005Z,14.00
2022-08-10T05:10:01.132Z,14.20
2022-08-10T05:12:30.054Z,14.30
2022-08-10T05:14:56.811Z,14.30
2022-08-10T05:17:23.837Z,14.50
2022-08-10T05:20:04.723Z,14.60
2022-08-10T05:22:33.637Z,14.80
2022-08-10T05:25:00.529Z,15.00
2022-08-10T05:27:27.173Z,15.10
2022-08-10T05:30:01.045Z,15.30
2022-08-10T05:32:29.898Z,15.50
2022-08-10T05:34:56.711Z,15.60
2022-08-10T05:38:10.908Z,15.60
2022-08-10T05:40:10.925Z,15.70
2022-08-10T05:42:38.212Z,15.80
2022-08-10T05:45:05.207Z,15.90
2022-08-10T05:48:54.560Z,15.90
2022-08-10T05:50:23.711Z,16.00
2022-08-10T05:52:50.445Z,16.00
2022-08-10T05:55:17.377Z,16.10
2022-08-10T05:57:45.189Z,16.10
2022-08-10T06:00:37.450Z,16.10
2022-08-10T06:03:03.738Z,16.20
2022-08-10T06:05:31.443Z,16.30
2022-08-10T06:08:08.378Z,16.30
2022-08-10T06:10:36.876Z,16.30
2022-08-10T06:13:59.447Z,16.30
2022-08-10T06:16:30.883Z,16.40
2022-08-10T06:18:57.936Z,16.40
2022-08-10T06:21:24.896Z,16.40
2022-08-10T06:23:52.820Z,16.60
2022-08-10T06:26:21.627Z,16.70
2022-08-10T06:29:02.638Z,16.80
2022-08-10T06:31:46.895Z,17.00
2022-08-10T06:34:14.612Z,17.00
2022-08-10T06:36:42.232Z,17.10
2022-08-10T06:39:30.320Z,17.10
2022-08-10T06:42:15.831Z,17.10
2022-08-10T06:45:04.791Z,17.20
2022-08-10T06:47:40.895Z,17.30
2022-08-10T06:50:13.829Z,17.40
2022-08-10T06:52:45.098Z,17.50
2022-08-10T06:55:16.639Z,17.70
2022-08-10T06:57:45.784Z,17.80
2022-08-10T07:00:33.343Z,17.90
2022-08-10T07:03:08.007Z,17.90
2022-08-10T07:05:36.309Z,18.00
2022-08-10T07:08:03.191Z,18.10
2022-08-10T07:10:41.104Z,18.00
2022-08-10T07:13:12.849Z,18.20
2022-08-10T07:15:59.270Z,18.20
2022-08-10T07:18:27.772Z,18.40
2022-08-10T07:20:57.391Z,18.40
2022-08-10T07:23:57.306Z,18.50
2022-08-10T07:26:13.919Z,18.50
2022-08-10T07:28:43.943Z,18.70
2022-08-10T07:31:34.879Z,18.90
2022-08-10T07:34:06.474Z,18.90
2022-08-10T07:36:35.047Z,18.90
2022-08-10T07:39:02.565Z,19.00
2022-08-10T07:41:31.902Z,19.10
2022-08-10T07:44:04.217Z,19.20
2022-08-10T07:46:31.980Z,19.30
2022-08-10T07:49:15.351Z,19.40
2022-08-10T07:51:46.431Z,19.50
2022-08-10T07:54:22.915Z,19.60
2022-08-10T07:56:51.284Z,19.70
2022-08-10T07:59:20.248Z,19.70
2022-08-10T08:01:50.377Z,19.80
2022-08-10T08:04:19.136Z,19.80
2022-08-10T08:06:46.794Z,19.80
2022-08-10T08:09:13.460Z,19.80
2022-08-10T08:11:42.276Z,19.90
2022-08-10T08:14:09.634Z,20.00
2022-08-10T08:16:37.435Z,20.00
2022-08-10T08:24:04.353Z,19.90
2022-08-10T08:24:39.105Z,20.10
2022-08-10T08:27:06.113Z,20.20
2022-08-10T08:29:36.826Z,20.20
2022-08-10T08:32:04.648Z,20.20
2022-08-10T08:34:36.895Z,20.30
2022-08-10T08:37:04.268Z,20.30
2022-08-10T08:39:33.085Z,20.40
2022-08-10T08:42:08.603Z,20.40
2022-08-10T08:44:41.249Z,20.40
2022-08-10T08:48:03.009Z,20.50
2022-08-10T08:50:10.450Z,20.60
2022-08-10T08:52:55.730Z,20.70
2022-08-10T08:56:03.807Z,20.70
2022-08-10T08:58:23.819Z,20.70
2022-08-10T09:00:56.539Z,20.80
2022-08-10T09:03:41.885Z,20.80
2022-08-10T09:06:21.356Z,20.80
2022-08-10T09:09:03.652Z,20.80
2022-08-10T09:11:49.119Z,20.70
2022-08-10T09:14:35.868Z,20.80
2022-08-10T09:17:15.177Z,20.80
2022-08-10T09:20:02.067Z,20.90
2022-08-10T09:22:37.836Z,20.90
2022-08-10T09:25:04.516Z,20.90
2022-08-10T09:27:35.262Z,21.00
2022-08-10T09:30:04.603Z,21.10
2022-08-10T09:36:17.011Z,21.20
2022-08-10T09:36:23.094Z,21.30
2022-08-10T09:38:22.786Z,21.30
2022-08-10T09:41:13.036Z,21.40
2022-08-10T09:44:00.290Z,21.40
2022-08-10T09:46:45.168Z,21.50
2022-08-10T09:49:11.797Z,21.60
2022-08-10T09:51:46.866Z,21.60
2022-08-10T09:54:17.392Z,21.60
2022-08-10T09:56:50.053Z,21.60
2022-08-10T10:00:00.002Z,21.60
2022-08-10T10:02:24.571Z,21.70
2022-08-10T10:05:10.078Z,21.80
2022-08-10T10:07:39.489Z,21.70
2022-08-10T10:10:13.584Z,21.80
2022-08-10T10:12:52.978Z,21.90
2022-08-10T10:15:37.508Z,22.00
2022-08-10T10:18:23.073Z,22.10
2022-08-10T10:20:54.744Z,22.10
2022-08-10T10:23:40.053Z,22.10
2022-08-10T10:26:25.613Z,22.10
2022-08-10T10:29:55.899Z,22.10
2022-08-10T10:32:03.521Z,22.20
2022-08-10T10:34:35.670Z,22.20
2022-08-10T10:37:02.701Z,22.20
2022-08-10T10:39:31.276Z,22.30
2022-08-10T10:42:35.024Z,22.40
2022-08-10T10:45:08.866Z,22.40
2022-08-10T10:47:54.399Z,22.40
2022-08-10T10:50:39.829Z,22.40
2022-08-10T10:53:24.328Z,22.40
2022-08-10T10:56:14.891Z,22.50
2022-08-10T10:58:41.962Z,22.50
2022-08-10T11:01:22.363Z,22.60
2022-08-10T11:04:04.206Z,22.70
2022-08-10T11:06:40.263Z,22.70
2022-08-10T11:10:03.711Z,22.80
2022-08-10T11:12:04.677Z,22.90
2022-08-10T11:14:37.569Z,22.90
2022-08-10T11:17:27.070Z,23.00
2022-08-10T11:20:14.273Z,23.10
2022-08-10T11:22:58.960Z,23.20
2022-08-10T11:25:30.352Z,23.20
2022-08-10T11:28:07.489Z,23.20
2022-08-10T11:30:44.531Z,23.20
2022-08-10T11:33:32.843Z,23.20
2022-08-10T11:36:04.831Z,23.20
2022-08-10T11:38:52.265Z,23.20
2022-08-10T11:42:09.118Z,23.30
2022-08-10T11:44:40.241Z,23.30
2022-08-10T11:47:06.881Z,23.40
2022-08-10T11:49:35.678Z,23.50
2022-08-10T11:52:35.006Z,23.60
2022-08-10T11:55:06.191Z,23.60
2022-08-10T11:57:53.911Z,23.80
2022-08-10T12:00:20.428Z,23.80
2022-08-10T12:02:55.877Z,23.80
2022-08-10T12:05:52.298Z,23.80
2022-08-10T12:10:03.891Z,23.80
2022-08-10T12:11:06.230Z,23.80
2022-08-10T12:14:10.804Z,23.80
2022-08-10T12:16:37.082Z,23.90
2022-08-10T12:19:23.963Z,24.00
2022-08-10T12:21:52.703Z,24.00
2022-08-10T12:24:25.198Z,23.90
2022-08-10T12:26:55.379Z,24.00
2022-08-10T12:29:37.220Z,24.10
2022-08-10T12:32:10.980Z,24.20
2022-08-10T12:34:50.160Z,24.20
2022-08-10T12:37:21.053Z,24.30
2022-08-10T12:39:53.155Z,24.30
2022-08-10T12:42:38.651Z,24.30
2022-08-10T12:45:33.095Z,24.30
2022-08-10T12:48:05.890Z,24.50
2022-08-10T12:50:43.669Z,24.60
2022-08-10T12:53:19.903Z,24.70
2022-08-10T12:55:48.092Z,24.70
2022-08-10T12:58:59.842Z,24.90
2022-08-10T13:01:21.390Z,24.90
2022-08-10T13:04:23.620Z,25.10
2022-08-10T13:06:41.015Z,25.20
2022-08-10T13:09:12.888Z,25.30
2022-08-10T13:12:36.343Z,25.40
2022-08-10T13:14:58.091Z,25.40
2022-08-10T13:17:39.519Z,25.60
2022-08-10T13:20:21.819Z,25.80
2022-08-10T13:22:49.566Z,25.90
2022-08-10T13:25:18.615Z,25.80
2022-08-10T13:27:59.909Z,25.80
2022-08-10T13:30:35.669Z,25.90
2022-08-10T13:33:05.685Z,25.90
2022-08-10T13:35:33.711Z,26.00
2022-08-10T13:38:02.869Z,26.10
2022-08-10T13:40:31.203Z,26.20
2022-08-10T13:42:59.609Z,26.30
2022-08-10T13:45:27.494Z,26.30
2022-08-10T13:47:55.857Z,26.40
2022-08-10T13:50:35.153Z,26.40
2022-08-10T13:53:03.722Z,26.50
2022-08-10T13:55:54.538Z,26.50
2022-08-10T13:58:22.153Z,26.30
2022-08-10T14:00:49.312Z,26.20
2022-08-10T14:03:16.904Z,26.20
2022-08-10T14:05:49.260Z,26.20
2022-08-10T14:08:17.787Z,26.00
2022-08-10T14:11:10.061Z,25.90
2022-08-10T14:13:32.734Z,26.10
2022-08-10T14:16:04.668Z,26.20
2022-08-10T14:18:33.798Z,26.10
2022-08-10T14:21:00.684Z,26.20
2022-08-10T14:23:32.308Z,26.30
2022-08-10T14:26:08.471Z,26.40
2022-08-10T14:29:01.556Z,26.50
2022-08-10T14:31:33.635Z,26.50
2022-08-10T14:34:02.005Z,26.60
2022-08-10T14:36:47.234Z,26.80
2022-08-10T14:39:40.263Z,26.80
2022-08-10T14:42:23.963Z,26.70
2022-08-10T14:44:55.249Z,26.70
2022-08-10T14:47:53.718Z,26.60
2022-08-10T14:50:15.576Z,26.70
2022-08-10T14:52:59.587Z,26.70
2022-08-10T14:55:26.375Z,26.80
2022-08-10T14:58:17.303Z,26.60
2022-08-10T15:00:43.705Z,26.60
2022-08-10T15:03:58.894Z,26.50
2022-08-10T15:06:02.388Z,26.80
2022-08-10T15:08:37.039Z,26.80
2022-08-10T15:11:04.262Z,26.80
2022-08-10T15:13:33.920Z,27.00
2022-08-10T15:16:12.499Z,26.80
2022-08-10T15:18:42.132Z,27.00
2022-08-10T15:21:35.779Z,27.20
2022-08-10T15:24:15.047Z,27.00
2022-08-10T15:26:51.081Z,27.00
2022-08-10T15:29:25.784Z,27.20
2022-08-10T15:32:12.162Z,27.30
2022-08-10T15:34:57.639Z,27.60
2022-08-10T15:37:40.506Z,27.50
2022-08-10T15:40:23.875Z,27.80
2022-08-10T15:42:55.692Z,27.80
2022-08-10T15:45:25.270Z,28.00
2022-08-10T15:48:02.472Z,28.10
2022-08-10T15:50:41.487Z,28.40
2022-08-10T15:53:16.111Z,29.00
2022-08-10T15:55:51.444Z,29.20
2022-08-10T15:58:37.508Z,29.70
2022-08-10T16:02:04.214Z,29.80
2022-08-10T16:04:08.339Z,30.10
2022-08-10T16:06:39.591Z,30.20
2022-08-10T16:10:23.093Z,30.70
2022-08-10T16:12:01.279Z,31.10
2022-08-10T16:14:29.901Z,31.40
2022-08-10T16:16:57.349Z,31.20
2022-08-10T16:19:25.603Z,31.30
2022-08-10T16:21:56.844Z,31.80
2022-08-10T16:24:24.384Z,32.30
2022-08-10T16:26:51.913Z,32.40
2022-08-10T16:29:20.930Z,32.90
2022-08-10T16:31:49.783Z,32.80
2022-08-10T16:34:17.805Z,33.00
2022-08-10T16:37:04.030Z,33.30
2022-08-10T16:39:57.887Z,33.50
2022-08-10T16:42:21.972Z,33.50
2022-08-10T16:44:57.687Z,33.80
2022-08-10T16:47:27.630Z,33.80
2022-08-10T16:49:59.973Z,33.60
2022-08-10T16:52:29.194Z,33.50
2022-08-10T16:54:59.192Z,33.30
2022-08-10T16:57:29.796Z,33.30
2022-08-10T16:59:57.242Z,33.30
2022-08-10T17:02:25.156Z,33.10
2022-08-10T17:04:52.531Z,33.00
2022-08-10T17:07:20.440Z,33.10
2022-08-10T17:09:54.184Z,33.10
2022-08-10T17:12:24.065Z,32.70
2022-08-10T17:15:09.496Z,32.30
2022-08-10T17:17:40.428Z,32.40
2022-08-10T17:20:31.859Z,32.40
2022-08-10T17:23:00.249Z,32.30
2022-08-10T17:25:48.506Z,32.40
2022-08-10T17:28:32.788Z,32.60
2022-08-10T17:31:18.969Z,32.60
2022-08-10T17:33:56.347Z,32.70
2022-08-10T17:36:24.300Z,32.50
2022-08-10T17:38:51.473Z,32.40
2022-08-10T17:41:23.745Z,32.30
2022-08-10T17:44:01.647Z,32.00
2022-08-10T17:46:47.564Z,31.90
2022-08-10T17:49:18.002Z,31.60
2022-08-10T17:51:50.491Z,31.70
2022-08-10T17:54:27.897Z,31.40
2022-08-10T17:56:56.437Z,31.20
2022-08-10T17:59:24.416Z,31.40
2022-08-10T18:01:58.967Z,30.80
2022-08-10T18:04:35.809Z,30.80
2022-08-10T18:07:09.047Z,30.70
2022-08-10T18:09:41.150Z,30.50
2022-08-10T18:12:17.875Z,30.50
2022-08-10T18:14:46.830Z,30.20
2022-08-10T18:17:15.045Z,29.60
2022-08-10T18:19:43.843Z,29.30
2022-08-10T18:22:11.971Z,29.10
2022-08-10T18:24:39.421Z,28.80
2022-08-10T18:27:07.738Z,28.10
2022-08-10T18:29:37.730Z,27.20
2022-08-10T18:32:05.029Z,26.50
2022-08-10T18:34:33.047Z,25.80
2022-08-10T18:37:00.447Z,25.40
2022-08-10T18:39:29.025Z,25.00
2022-08-10T18:42:14.656Z,24.80
2022-08-10T18:44:44.479Z,24.50
2022-08-10T18:47:14.866Z,24.30
2022-08-10T18:49:50.452Z,24.00
2022-08-10T18:52:19.827Z,23.80
2022-08-10T18:54:48.737Z,23.50
2022-08-10T18:57:27.392Z,23.40
2022-08-10T19:00:03.537Z,23.30
2022-08-10T19:02:34.535Z,23.10
2022-08-10T19:05:31.359Z,23.10
2022-08-10T19:08:30.451Z,23.00
2022-08-10T19:11:10.501Z,22.80
2022-08-10T19:14:00.383Z,22.60
2022-08-10T19:16:27.157Z,22.50
2022-08-10T19:19:21.904Z,22.30
2022-08-10T19:21:56.374Z,22.20
2022-08-10T19:24:38.528Z,22.00
2022-08-10T19:27:29.682Z,22.00
2022-08-10T19:30:09.256Z,21.90
2022-08-10T19:32:57.187Z,21.80
2022-08-10T19:35:30.018Z,21.60
2022-08-10T19:38:32.053Z,21.50
2022-08-10T19:41:09.511Z,21.40
2022-08-10T19:43:59.869Z,21.30
2022-08-10T19:46:37.544Z,21.20
2022-08-10T19:49:12.939Z,21.20
2022-08-10T19:51:51.497Z,21.10
2022-08-10T19:54:24.729Z,21.00
2022-08-10T19:56:57.267Z,21.00
2022-08-10T20:00:16.196Z,21.00
2022-08-10T20:02:19.947Z,20.90
2022-08-10T20:04:52.841Z,20.80
2022-08-10T20:07:23.424Z,20.60
2022-08-10T20:10:00.536Z,20.50
2022-08-10T20:12:50.556Z,20.40
2022-08-10T20:15:42.273Z,20.40
2022-08-10T20:18:19.396Z,20.40
2022-08-10T20:20:51.519Z,20.30
2022-08-10T20:23:22.708Z,20.30
2022-08-10T20:25:56.413Z,20.30
2022-08-10T20:28:29.349Z,20.20
2022-08-10T20:31:02.415Z,20.10
2022-08-10T20:33:33.031Z,20.10
2022-08-10T20:36:05.325Z,20.00
2022-08-10T20:38:45.769Z,20.00
2022-08-10T20:41:33.830Z,20.00
2022-08-10T20:44:50.648Z,19.90
2022-08-10T20:47:36.952Z,19.90
2022-08-10T20:50:27.737Z,19.90
2022-08-10T20:52:55.779Z,19.80
2022-08-10T20:55:23.691Z,19.90
2022-08-10T20:57:55.482Z,19.90
2022-08-10T21:00:52.512Z,19.80
2022-08-10T21:03:33.148Z,19.70
2022-08-10T21:06:43.288Z,19.60
2022-08-10T21:09:29.042Z,19.60
2022-08-10T21:12:18.745Z,19.60
2022-08-10T21:14:48.583Z,19.70
2022-08-10T21:17:15.235Z,19.60
2022-08-10T21:20:02.300Z,19.60
2022-08-10T21:22:33.262Z,19.60
2022-08-10T21:25:04.968Z,19.50
2022-08-10T21:27:47.204Z,19.40
2022-08-10T21:30:30.613Z,19.30
2022-08-10T21:33:07.833Z,19.30
2022-08-10T21:35:45.021Z,19.30
2022-08-10T21:38:29.603Z,19.30
2022-08-10T21:41:17.935Z,19.30
2022-08-10T21:44:23.411Z,19.30
2022-08-10T21:47:08.635Z,19.20
2022-08-10T21:50:11.785Z,19.20
2022-08-10T21:53:08.028Z,19.20
2022-08-10T21:56:00.276Z,19.20
2022-08-10T21:58:48.877Z,19.10
2022-08-10T22:01:40.203Z,19.10
2022-08-10T22:04:26.302Z,19.00
2022-08-10T22:07:13.547Z,19.00
2022-08-10T22:10:02.724Z,18.90
2022-08-10T22:12:52.433Z,18.90
2022-08-10T22:16:03.666Z,18.80
2022-08-10T22:21:57.215Z,18.90
2022-08-10T22:24:56.477Z,18.80
2022-08-10T22:27:48.132Z,18.80
2022-08-10T22:30:37.563Z,18.60
2022-08-10T22:31:26.030Z,18.80
2022-08-10T22:33:22.816Z,18.50
2022-08-10T22:36:20.313Z,18.60
2022-08-10T22:40:11.849Z,18.50
2022-08-10T22:42:59.548Z,18.40
2022-08-10T22:45:55.932Z,18.50
2022-08-10T22:48:41.149Z,18.50
2022-08-10T22:51:20.672Z,18.50
2022-08-10T22:54:11.746Z,18.40
2022-08-10T22:57:20.219Z,18.40
2022-08-10T22:59:47.367Z,18.40
2022-08-10T23:02:17.525Z,18.40
2022-08-10T23:04:48.643Z,18.40
2022-08-10T23:07:23.311Z,18.30
2022-08-10T23:10:10.489Z,18.20
2022-08-10T23:13:02.500Z,18.20
2022-08-10T23:15:51.574Z,18.20
2022-08-10T23:18:39.223Z,18.20
2022-08-10T23:21:06.575Z,18.10
2022-08-10T23:23:38.347Z,18.10
2022-08-10T23:26:06.172Z,18.10
2022-08-10T23:28:39.283Z,18.00
2022-08-10T23:31:50.392Z,18.00
2022-08-10T23:34:11.227Z,17.90
2022-08-10T23:36:38.979Z,17.90
2022-08-10T23:39:26.508Z,17.90
2022-08-10T23:42:13.917Z,17.90
2022-08-10T23:44:42.618Z,17.90
2022-08-10T23:47:12.368Z,17.90
2022-08-10T23:49:39.500Z,17.90
2022-08-10T23:52:10.760Z,17.90
2022-08-10T23:54:42.688Z,17.90
2022-08-10T23:57:13.601Z,17.90
2022-08-10T23:59:41.485Z,17.90
